createdAt,value
2019-03-22T09:47:24.101Z,442.40
2019-03-22T09:53:24.096Z,414.00
2019-03-22T09:59:24.170Z,383.20
2019-03-22T10:05:24.205Z,356.60
2019-03-22T10:11:24.131Z,236.00
2019-03-22T10:17:24.161Z,245.70
2019-03-22T10:23:24.083Z,258.10
2019-03-22T10:29:24.177Z,322.60
2019-03-22T10:35:26.286Z,381.10
2019-03-22T10:41:24.109Z,398.30
2019-03-22T10:47:24.144Z,377.90
2019-03-22T10:53:24.120Z,395.70
2019-03-22T10:59:24.240Z,420.90
2019-03-22T11:05:24.128Z,288.20
2019-03-22T11:11:24.224Z,324.40
2019-03-22T11:17:24.140Z,313.30
2019-03-22T11:23:24.122Z,300.20
2019-03-22T11:29:24.174Z,290.70
2019-03-22T11:35:24.173Z,280.40
2019-03-22T11:41:24.169Z,282.10
2019-03-22T11:47:24.164Z,282.20
2019-03-22T11:53:24.168Z,260.10
2019-03-22T11:59:24.177Z,250.50
2019-03-22T12:05:24.188Z,233.30
2019-03-22T12:11:24.183Z,229.90
2019-03-22T12:17:24.178Z,221.40
2019-03-22T12:23:24.218Z,216.30
2019-03-22T12:29:24.219Z,201.40
2019-03-22T12:35:24.184Z,196.30
2019-03-22T12:41:24.188Z,190.30
2019-03-22T12:47:24.240Z,186.40
2019-03-22T12:53:24.345Z,179.90
2019-03-22T12:59:24.214Z,172.00
2019-03-22T13:05:24.214Z,168.60
2019-03-22T13:11:24.205Z,159.90
2019-03-22T13:17:24.208Z,153.20
2019-03-22T13:23:24.263Z,148.40
2019-03-22T13:29:24.227Z,143.60
2019-03-22T13:35:24.237Z,140.80
2019-03-22T13:41:24.239Z,134.50
2019-03-22T13:47:24.270Z,128.40
2019-03-22T13:53:24.250Z,126.60
2019-03-22T13:59:24.247Z,119.10
2019-03-22T14:05:24.259Z,118.10
2019-03-22T14:11:24.357Z,111.40
2019-03-22T14:17:24.284Z,107.00
2019-03-22T14:23:24.277Z,104.00
2019-03-22T14:29:24.263Z,99.10
2019-03-22T14:35:24.295Z,93.90
2019-03-22T14:41:24.318Z,83.80
2019-03-22T14:47:24.329Z,81.90
2019-03-22T14:53:24.475Z,80.70
2019-03-22T14:59:24.337Z,85.30
2019-03-22T15:05:24.323Z,79.30
2019-03-22T15:11:24.302Z,75.70
2019-03-22T15:17:24.312Z,72.80
2019-03-22T15:23:24.426Z,71.10
2019-03-22T15:29:24.328Z,138.80
2019-03-22T15:41:24.387Z,244.20
2019-03-22T15:47:24.328Z,318.50
2019-03-22T15:53:24.374Z,286.00
2019-03-22T15:59:24.359Z,252.40
2019-03-22T16:05:24.561Z,212.30
2019-03-22T16:11:24.422Z,209.20
2019-03-22T16:17:24.368Z,198.00
2019-03-22T16:23:24.367Z,163.10
2019-03-22T16:29:24.397Z,170.10
2019-03-22T16:35:24.463Z,166.60
2019-03-22T16:41:24.375Z,145.80
2019-03-22T16:47:24.392Z,150.30
2019-03-22T16:53:24.473Z,135.20
2019-03-22T16:59:24.389Z,135.00
2019-03-22T17:05:24.460Z,130.10
2019-03-22T17:11:24.401Z,128.60
2019-03-22T17:17:24.417Z,117.90
2019-03-22T17:23:24.484Z,148.50
2019-03-22T17:29:24.423Z,202.00
2019-03-22T17:35:24.461Z,190.20
2019-03-22T17:41:24.411Z,172.90
2019-03-22T17:47:24.433Z,160.10
2019-03-22T17:53:24.527Z,147.50
2019-03-22T17:59:24.460Z,142.00
2019-03-22T18:05:24.652Z,132.30
2019-03-22T18:11:24.529Z,119.20
2019-03-22T18:17:24.456Z,114.30
2019-03-22T18:23:24.524Z,109.50
2019-03-22T18:29:24.447Z,108.90
2019-03-22T18:35:24.518Z,102.20
2019-03-22T18:41:24.472Z,88.00
2019-03-22T18:47:24.490Z,84.50
2019-03-22T18:53:24.485Z,75.00
2019-03-22T18:59:24.491Z,75.40
2019-03-22T19:05:24.512Z,81.90
2019-03-22T19:11:24.493Z,125.70
2019-03-22T19:17:24.486Z,150.50
2019-03-22T19:23:24.514Z,245.50
2019-03-22T19:29:24.554Z,280.30
2019-03-22T19:35:24.493Z,242.80
2019-03-22T19:41:24.545Z,208.80
2019-03-22T19:47:24.596Z,175.60
2019-03-22T19:53:24.638Z,275.00
2019-03-22T19:59:24.537Z,287.20
2019-03-22T20:05:24.622Z,244.60
2019-03-22T20:11:24.691Z,211.90
2019-03-22T20:17:24.542Z,197.20
2019-03-22T20:23:24.639Z,181.80
2019-03-22T20:29:24.573Z,221.70
2019-03-22T20:35:24.560Z,231.90
2019-03-22T20:41:24.563Z,214.40
2019-03-22T20:47:24.582Z,175.70
2019-03-22T20:53:24.647Z,154.80
2019-03-22T20:59:24.709Z,138.50
2019-03-22T21:05:27.165Z,126.20
2019-03-22T21:11:24.602Z,114.50
2019-03-22T21:17:24.618Z,104.70
2019-03-22T21:23:24.637Z,92.40
2019-03-22T21:29:24.593Z,131.10
2019-03-22T21:35:24.631Z,240.00
2019-03-22T21:41:24.604Z,155.40
2019-03-22T21:47:24.616Z,135.40
2019-03-22T21:53:24.604Z,185.20
2019-03-22T21:59:24.690Z,222.10
2019-03-22T22:05:24.629Z,160.50
2019-03-22T22:11:24.639Z,143.10
2019-03-22T22:17:24.736Z,135.90
2019-03-22T22:23:24.723Z,115.40
2019-03-22T22:29:24.674Z,105.60
2019-03-22T22:35:24.641Z,98.20
2019-03-22T22:41:24.647Z,88.90
2019-03-22T22:47:24.662Z,81.30
2019-03-22T22:53:24.778Z,80.10
2019-03-22T22:59:24.670Z,119.50
2019-03-22T23:05:24.696Z,153.00
2019-03-22T23:11:24.912Z,130.20
2019-03-22T23:17:24.762Z,172.50
2019-03-22T23:23:24.705Z,236.60
2019-03-22T23:29:24.727Z,165.10
2019-03-22T23:35:24.686Z,145.70
2019-03-22T23:41:24.819Z,138.50
2019-03-22T23:47:24.746Z,124.90
2019-03-22T23:53:24.699Z,114.80
2019-03-22T23:59:24.711Z,108.30
